createdAt,value
2022-08-29T00:00:42.807Z,0.00
2022-08-29T00:05:42.745Z,0.00
2022-08-29T00:11:53.494Z,0.00
2022-08-29T00:16:53.607Z,0.00
2022-08-29T00:21:53.392Z,0.00
2022-08-29T00:26:53.330Z,0.00
2022-08-29T00:31:53.339Z,0.00
2022-08-29T00:36:53.221Z,0.00
2022-08-29T00:41:53.168Z,0.00
2022-08-29T00:46:53.120Z,0.00
2022-08-29T00:51:53.127Z,0.00
2022-08-29T00:56:53.134Z,0.00
2022-08-29T01:01:53.107Z,0.00
2022-08-29T01:06:53.990Z,0.00
2022-08-29T01:11:52.839Z,0.00
2022-08-29T01:16:52.975Z,0.00
2022-08-29T01:21:52.740Z,0.00
2022-08-29T01:26:52.676Z,0.00
2022-08-29T01:31:57.137Z,0.00
2022-08-29T01:36:53.570Z,0.00
2022-08-29T01:41:52.679Z,0.00
2022-08-29T01:46:53.586Z,0.00
2022-08-29T01:51:52.504Z,0.00
2022-08-29T01:56:52.353Z,0.00
2022-08-29T02:01:52.488Z,0.00
2022-08-29T02:06:52.256Z,0.00
2022-08-29T02:11:52.206Z,0.00
2022-08-29T02:16:52.215Z,0.00
2022-08-29T02:21:52.143Z,0.00
2022-08-29T02:26:52.193Z,0.00
2022-08-29T02:31:52.002Z,0.00
2022-08-29T02:36:52.063Z,0.00
2022-08-29T02:41:51.860Z,0.00
2022-08-29T02:46:51.920Z,0.00
2022-08-29T02:51:51.749Z,0.00
2022-08-29T02:56:51.703Z,0.00
2022-08-29T03:01:51.845Z,0.00
2022-08-29T03:06:51.597Z,0.00
2022-08-29T03:11:51.651Z,0.00
2022-08-29T03:16:51.597Z,0.00
2022-08-29T03:21:51.518Z,0.00
2022-08-29T03:26:54.521Z,0.00
2022-08-29T03:31:52.356Z,0.00
2022-08-29T03:36:51.267Z,0.00
2022-08-29T03:41:51.227Z,0.00
2022-08-29T03:46:51.212Z,0.00
2022-08-29T03:51:51.277Z,0.00
2022-08-29T03:56:51.066Z,0.00
2022-08-29T04:01:51.199Z,0.00
2022-08-29T04:06:51.105Z,0.00
2022-08-29T04:11:50.895Z,0.00
2022-08-29T04:16:50.844Z,0.00
2022-08-29T04:21:50.804Z,0.00
2022-08-29T04:26:50.733Z,5.62
2022-08-29T04:31:50.682Z,11.25
2022-08-29T04:36:50.631Z,16.88
2022-08-29T04:41:50.575Z,28.12
2022-08-29T04:46:50.567Z,39.38
2022-08-29T04:51:50.538Z,50.62
2022-08-29T04:56:50.388Z,67.50
2022-08-29T05:01:50.433Z,101.25
2022-08-29T05:06:50.298Z,135.00
2022-08-29T05:11:50.285Z,157.50
2022-08-29T05:16:50.244Z,185.62
2022-08-29T05:21:53.642Z,219.38
2022-08-29T05:26:50.065Z,241.88
2022-08-29T05:31:50.034Z,258.75
2022-08-29T05:36:49.976Z,275.62
2022-08-29T05:41:49.925Z,315.00
2022-08-29T05:46:49.865Z,348.75
2022-08-29T05:51:49.814Z,360.00
2022-08-29T05:56:49.780Z,348.75
2022-08-29T06:01:49.700Z,365.62
2022-08-29T06:06:49.631Z,405.00
2022-08-29T06:11:58.911Z,444.38
2022-08-29T06:16:49.643Z,528.75
2022-08-29T06:21:49.480Z,641.25
2022-08-29T06:26:49.418Z,725.62
2022-08-29T06:31:49.373Z,821.25
2022-08-29T06:36:49.499Z,826.88
2022-08-29T06:41:49.248Z,753.75
2022-08-29T06:46:49.279Z,804.38
2022-08-29T06:51:49.210Z,731.25
2022-08-29T06:56:49.148Z,821.25
2022-08-29T07:01:49.218Z,1231.88
2022-08-29T07:06:49.014Z,990.00
2022-08-29T07:11:48.944Z,922.50
2022-08-29T07:16:48.867Z,1231.88
2022-08-29T07:21:48.821Z,1636.88
2022-08-29T07:26:48.901Z,1648.12
2022-08-29T07:31:48.848Z,2025.00
2022-08-29T07:36:48.675Z,2424.38
2022-08-29T07:41:48.724Z,1906.88
2022-08-29T07:46:48.642Z,3245.62
2022-08-29T07:51:48.702Z,2773.12
2022-08-29T07:56:48.444Z,1755.00
2022-08-29T08:01:48.430Z,2666.25
2022-08-29T08:06:48.414Z,1839.38
2022-08-29T08:11:48.363Z,2311.88
2022-08-29T08:16:49.337Z,2008.12
2022-08-29T08:21:49.833Z,3706.88
2022-08-29T08:26:48.295Z,1653.75
2022-08-29T08:31:48.089Z,2750.62
2022-08-29T08:36:48.095Z,2925.00
2022-08-29T08:41:47.970Z,3099.38
2022-08-29T08:46:47.942Z,1783.12
2022-08-29T08:51:47.858Z,1963.12
2022-08-29T08:56:47.807Z,1468.12
2022-08-29T09:01:47.854Z,4016.25
2022-08-29T09:06:47.725Z,3183.75
2022-08-29T09:11:47.736Z,3510.00
2022-08-29T09:16:47.839Z,3802.50
2022-08-29T09:21:47.533Z,2446.88
2022-08-29T09:26:47.482Z,4010.62
2022-08-29T09:31:47.523Z,2643.75
2022-08-29T09:36:47.722Z,4483.12
2022-08-29T09:41:47.380Z,3335.62
2022-08-29T09:46:47.311Z,3138.75
2022-08-29T09:51:47.257Z,4584.38
2022-08-29T09:56:47.303Z,4410.00
2022-08-29T10:01:47.281Z,4696.88
2022-08-29T10:06:52.078Z,4578.75
2022-08-29T10:11:49.927Z,4590.00
2022-08-29T10:16:48.062Z,3982.50
2022-08-29T10:21:46.931Z,2694.38
2022-08-29T10:26:46.938Z,4803.75
2022-08-29T10:31:47.050Z,5079.38
2022-08-29T10:36:46.801Z,4831.88
2022-08-29T10:41:50.284Z,4438.12
2022-08-29T10:46:46.697Z,4933.12
2022-08-29T10:51:46.635Z,3363.75
2022-08-29T10:56:46.573Z,2334.38
2022-08-29T11:01:46.618Z,3436.88
2022-08-29T11:06:49.916Z,4173.75
2022-08-29T11:11:46.430Z,5085.00
2022-08-29T11:16:46.509Z,2598.75
2022-08-29T11:21:46.376Z,3105.00
2022-08-29T11:26:46.302Z,3380.62
2022-08-29T11:31:46.311Z,1850.62
2022-08-29T11:36:46.172Z,2598.75
2022-08-29T11:41:46.300Z,2508.75
2022-08-29T11:46:46.700Z,4258.12
2022-08-29T11:51:46.109Z,5051.25
2022-08-29T11:56:45.993Z,5101.88
2022-08-29T12:01:45.990Z,4432.50
2022-08-29T12:06:45.877Z,4455.00
2022-08-29T12:11:52.991Z,3740.62
2022-08-29T12:16:45.882Z,4376.25
2022-08-29T12:21:45.741Z,4893.75
2022-08-29T12:26:45.785Z,4708.12
2022-08-29T12:31:56.762Z,4320.00
2022-08-29T12:36:52.185Z,3774.38
2022-08-29T12:41:46.625Z,2053.12
2022-08-29T12:46:45.561Z,3481.88
2022-08-29T12:51:45.459Z,4308.75
2022-08-29T12:56:46.492Z,3684.38
2022-08-29T13:01:45.367Z,3420.00
2022-08-29T13:06:45.310Z,3285.00
2022-08-29T13:11:45.282Z,2846.25
2022-08-29T13:16:45.212Z,2548.12
2022-08-29T13:21:45.186Z,2238.75
2022-08-29T13:26:50.430Z,2086.88
2022-08-29T13:31:46.272Z,1929.38
2022-08-29T13:36:45.110Z,1996.88
2022-08-29T13:41:45.028Z,1946.25
2022-08-29T13:46:45.048Z,1816.88
2022-08-29T13:51:45.011Z,1878.75
2022-08-29T13:56:44.830Z,1861.88
2022-08-29T14:06:45.739Z,1861.88
2022-08-29T14:11:44.788Z,1867.50
2022-08-29T14:16:44.809Z,1743.75
2022-08-29T14:21:44.769Z,1783.12
2022-08-29T14:26:44.661Z,1766.25
2022-08-29T14:31:44.620Z,1642.50
2022-08-29T14:36:49.093Z,1333.12
2022-08-29T14:41:44.393Z,551.25
2022-08-29T14:46:44.389Z,517.50
2022-08-29T14:51:44.407Z,495.00
2022-08-29T14:56:48.572Z,495.00
2022-08-29T15:01:52.666Z,500.62
2022-08-29T15:06:45.250Z,506.25
2022-08-29T15:11:44.249Z,500.62
2022-08-29T15:16:44.178Z,483.75
2022-08-29T15:21:44.115Z,461.25
2022-08-29T15:26:44.047Z,444.38
2022-08-29T15:31:43.903Z,438.75
2022-08-29T15:36:43.870Z,427.50
2022-08-29T15:41:43.784Z,421.88
2022-08-29T15:46:50.787Z,399.38
2022-08-29T15:51:44.717Z,421.88
2022-08-29T15:56:43.634Z,410.62
2022-08-29T16:01:43.731Z,382.50
2022-08-29T16:06:43.637Z,444.38
2022-08-29T16:11:43.485Z,388.12
2022-08-29T16:16:43.403Z,500.62
2022-08-29T16:21:44.452Z,472.50
2022-08-29T16:26:45.748Z,388.12
2022-08-29T16:31:43.257Z,365.62
2022-08-29T16:36:43.168Z,399.38
2022-08-29T16:41:43.194Z,343.12
2022-08-29T16:46:43.151Z,354.38
2022-08-29T16:51:43.074Z,433.12
2022-08-29T16:56:43.005Z,433.12
2022-08-29T17:01:43.043Z,393.75
2022-08-29T17:06:42.875Z,388.12
2022-08-29T17:11:42.816Z,393.75
2022-08-29T17:16:42.768Z,303.75
2022-08-29T17:21:46.087Z,236.25
2022-08-29T17:26:42.697Z,208.12
2022-08-29T17:31:42.697Z,191.25
2022-08-29T17:36:42.526Z,157.50
2022-08-29T17:41:44.495Z,146.25
2022-08-29T17:46:42.429Z,129.38
2022-08-29T17:51:42.381Z,135.00
2022-08-29T17:56:44.535Z,112.50
2022-08-29T18:01:42.342Z,73.12
2022-08-29T18:06:42.198Z,67.50
2022-08-29T18:11:42.212Z,61.88
2022-08-29T18:16:51.056Z,33.75
2022-08-29T18:21:43.293Z,28.12
2022-08-29T18:26:42.035Z,16.88
2022-08-29T18:31:42.066Z,11.25
2022-08-29T18:36:41.914Z,5.62
2022-08-29T18:41:41.904Z,0.00
2022-08-29T18:46:41.865Z,0.00
2022-08-29T18:51:42.848Z,0.00
2022-08-29T18:56:41.756Z,0.00
2022-08-29T19:01:41.811Z,0.00
2022-08-29T19:06:41.617Z,0.00
2022-08-29T19:11:41.606Z,0.00
2022-08-29T19:16:41.547Z,0.00
2022-08-29T19:21:41.531Z,0.00
2022-08-29T19:26:41.477Z,0.00
2022-08-29T19:31:41.520Z,0.00
2022-08-29T19:36:41.459Z,0.00
2022-08-29T19:41:41.342Z,0.00
2022-08-29T19:46:46.001Z,0.00
2022-08-29T19:51:42.287Z,0.00
2022-08-29T19:56:41.402Z,0.00
2022-08-29T20:01:46.097Z,0.00
2022-08-29T20:06:41.016Z,0.00
2022-08-29T20:11:43.667Z,0.00
2022-08-29T20:16:40.991Z,0.00
2022-08-29T20:21:40.894Z,0.00
2022-08-29T20:26:40.748Z,0.00
2022-08-29T20:31:40.824Z,0.00
2022-08-29T20:36:40.639Z,0.00
2022-08-29T20:41:40.595Z,0.00
2022-08-29T20:46:40.773Z,0.00
2022-08-29T20:51:40.511Z,0.00
2022-08-29T20:56:40.431Z,0.00
2022-08-29T21:01:40.512Z,0.00
2022-08-29T21:06:40.311Z,0.00
2022-08-29T21:11:41.397Z,0.00
2022-08-29T21:16:40.353Z,0.00
2022-08-29T21:21:40.222Z,0.00
2022-08-29T21:26:40.081Z,0.00
2022-08-29T21:31:40.108Z,0.00
2022-08-29T21:36:39.976Z,0.00
2022-08-29T21:41:39.960Z,0.00
2022-08-29T21:46:39.982Z,0.00
2022-08-29T21:51:39.891Z,0.00
2022-08-29T21:56:39.823Z,0.00
2022-08-29T22:01:39.751Z,0.00
2022-08-29T22:06:39.703Z,0.00
2022-08-29T22:11:39.617Z,0.00
2022-08-29T22:16:39.550Z,0.00
2022-08-29T22:21:39.520Z,0.00
2022-08-29T22:26:39.440Z,0.00
2022-08-29T22:31:39.415Z,0.00
2022-08-29T22:36:39.295Z,0.00
2022-08-29T22:41:39.714Z,0.00
2022-08-29T22:46:39.380Z,0.00
2022-08-29T22:51:39.259Z,0.00
2022-08-29T22:56:40.144Z,0.00
2022-08-29T23:01:39.102Z,0.00
2022-08-29T23:06:39.035Z,0.00
2022-08-29T23:11:38.948Z,0.00
2022-08-29T23:16:38.861Z,0.00
2022-08-29T23:21:40.112Z,0.00
2022-08-29T23:26:38.785Z,0.00
2022-08-29T23:31:38.891Z,0.00
2022-08-29T23:36:38.713Z,0.00
2022-08-29T23:41:38.652Z,0.00
2022-08-29T23:46:38.740Z,0.00
2022-08-29T23:51:38.514Z,0.00
2022-08-29T23:56:38.469Z,0.00
